Time;durP1;ratioP1;P1;durP2;ratioP2;P2;SDS_P1;SDS_P2;PMS_P1;PMS_P2;Temp;Humidity;BMP_temperature;BMP_pressure;BME280_temperature;BME280_humidity;BME280_pressure;Samples;Min_cycle;Max_cycle;Signal;HPM_P1;HPM_P2
2022/07/09 00:01:44;;;;;;;8.48;5.03;;;17.90;99.90;;;;;;5040675;28;20044;-80
2022/07/09 00:04:12;;;;;;;10.77;5.95;;;17.90;99.90;;;;;;5043443;28;20534;-80
2022/07/09 00:06:38;;;;;;;12.73;5.47;;;17.90;99.90;;;;;;5042100;28;20064;-80
2022/07/09 00:09:04;;;;;;;8.30;5.43;;;17.80;99.90;;;;;;5051552;28;20483;-80
2022/07/09 00:11:30;;;;;;;11.10;5.32;;;17.80;99.90;;;;;;5039726;28;20555;-80
2022/07/09 00:13:55;;;;;;;10.25;5.28;;;17.80;99.90;;;;;;5045187;28;20055;-81
2022/07/09 00:16:21;;;;;;;10.25;5.28;;;17.70;99.90;;;;;;5046603;28;20084;-81
2022/07/09 00:18:46;;;;;;;8.23;5.10;;;17.70;99.90;;;;;;5023921;28;20041;-82
2022/07/09 00:21:12;;;;;;;11.27;5.40;;;17.70;99.90;;;;;;5040480;28;20063;-81
2022/07/09 00:23:38;;;;;;;10.48;5.20;;;17.70;99.90;;;;;;5040487;28;20036;-80
2022/07/09 00:26:04;;;;;;;10.52;5.25;;;17.70;99.90;;;;;;5041142;28;20124;-81
2022/07/09 00:28:29;;;;;;;7.97;5.45;;;17.80;99.90;;;;;;5040594;28;20059;-81
2022/07/09 00:30:55;;;;;;;10.77;4.82;;;17.80;99.90;;;;;;5039235;28;20495;-81
2022/07/09 00:33:20;;;;;;;11.30;4.93;;;17.80;99.90;;;;;;5053852;28;20044;-82
2022/07/09 00:35:46;;;;;;;8.90;5.00;;;17.80;99.90;;;;;;5040733;28;20041;-81
2022/07/09 00:38:11;;;;;;;10.80;5.15;;;17.70;99.90;;;;;;5039877;28;20120;-80
2022/07/09 00:40:38;;;;;;;9.85;4.72;;;17.70;99.90;;;;;;5038644;28;20071;-80
2022/07/09 00:43:03;;;;;;;11.02;4.72;;;17.60;99.90;;;;;;5040289;28;20087;-81
2022/07/09 00:45:29;;;;;;;10.38;4.93;;;17.60;99.90;;;;;;5041354;28;20073;-82
2022/07/09 00:47:54;;;;;;;10.70;4.78;;;17.60;99.90;;;;;;5050287;28;20477;-81
2022/07/09 00:50:20;;;;;;;11.95;5.13;;;17.60;99.90;;;;;;5040621;28;20040;-82
2022/07/09 00:52:47;;;;;;;9.25;4.57;;;17.60;99.90;;;;;;5040626;28;20039;-80
2022/07/09 00:55:13;;;;;;;15.32;5.00;;;17.50;99.90;;;;;;5037799;28;20045;-80
2022/07/09 00:57:40;;;;;;;10.65;4.75;;;17.60;99.90;;;;;;5037339;28;20039;-82
2022/07/09 01:00:07;;;;;;;11.55;4.80;;;17.60;99.90;;;;;;5039571;28;20047;-81
2022/07/09 01:02:34;;;;;;;8.77;4.30;;;17.60;99.90;;;;;;5039956;28;20037;-81
2022/07/09 01:04:59;;;;;;;12.32;4.68;;;17.50;99.90;;;;;;5040441;28;20094;-82
2022/07/09 01:07:25;;;;;;;10.07;4.70;;;17.60;99.90;;;;;;5023840;28;20494;-82
2022/07/09 01:09:50;;;;;;;8.77;4.50;;;17.50;99.90;;;;;;5038075;28;20059;-79
2022/07/09 01:12:16;;;;;;;11.70;5.03;;;17.40;99.90;;;;;;5039283;28;20044;-80
2022/07/09 01:14:42;;;;;;;16.23;5.22;;;17.40;99.90;;;;;;5038639;28;20029;-81
2022/07/09 01:17:07;;;;;;;12.23;4.50;;;17.30;99.90;;;;;;5043403;28;20418;-80
2022/07/09 01:19:34;;;;;;;12.02;5.05;;;17.30;99.90;;;;;;5042694;28;20049;-81
2022/07/09 01:22:00;;;;;;;13.18;5.53;;;17.30;99.90;;;;;;5038176;28;20423;-81
2022/07/09 01:24:26;;;;;;;11.98;5.20;;;17.20;99.90;;;;;;5039183;28;20033;-80
2022/07/09 01:26:53;;;;;;;11.48;5.35;;;17.20;99.90;;;;;;5037257;28;20033;-80
2022/07/09 01:29:18;;;;;;;16.42;4.90;;;17.20;99.90;;;;;;5039903;28;20049;-80
2022/07/09 01:31:44;;;;;;;13.48;4.97;;;17.20;99.90;;;;;;5021462;28;20496;-79
2022/07/09 01:34:09;;;;;;;15.20;5.55;;;17.20;99.90;;;;;;5021959;28;20449;-79
2022/07/09 01:36:35;;;;;;;9.23;5.40;;;17.20;99.90;;;;;;5038832;28;20044;-80
2022/07/09 01:39:01;;;;;;;12.50;5.53;;;17.10;99.90;;;;;;5037961;28;20842;-80
2022/07/09 01:41:26;;;;;;;12.35;5.95;;;17.10;99.90;;;;;;5039831;28;20609;-81
2022/07/09 01:43:52;;;;;;;15.27;6.15;;;17.10;99.90;;;;;;5021431;28;20041;-81
2022/07/09 01:46:17;;;;;;;12.82;6.20;;;17.10;99.90;;;;;;5039200;28;20036;-80
2022/07/09 01:48:43;;;;;;;12.52;6.40;;;17.10;99.90;;;;;;5037779;28;20051;-79
2022/07/09 01:51:09;;;;;;;13.90;6.25;;;17.00;99.90;;;;;;5038131;28;20040;-80
2022/07/09 01:53:35;;;;;;;11.55;5.60;;;17.00;99.90;;;;;;5040004;28;20044;-80
2022/07/09 01:56:09;;;;;;;12.52;5.90;;;17.00;99.90;;;;;;5039662;28;20053;-81
2022/07/09 01:58:35;;;;;;;12.98;7.15;;;17.10;99.90;;;;;;5040330;28;20060;-81
2022/07/09 02:01:01;;;;;;;13.40;6.13;;;17.00;99.90;;;;;;5021511;28;20049;-80
2022/07/09 02:03:27;;;;;;;13.40;5.78;;;17.10;99.90;;;;;;5039152;28;20033;-80
2022/07/09 02:05:53;;;;;;;10.85;6.15;;;17.00;99.90;;;;;;5039123;28;20040;-80
2022/07/09 02:08:18;;;;;;;13.20;6.00;;;17.00;99.90;;;;;;5036714;28;20445;-80
2022/07/09 02:10:44;;;;;;;14.93;6.28;;;17.00;99.90;;;;;;5040474;28;21111;-81
2022/07/09 02:13:09;;;;;;;13.73;6.35;;;16.90;99.90;;;;;;5023957;28;20041;-80
2022/07/09 02:15:35;;;;;;;14.38;5.80;;;16.90;99.90;;;;;;5036909;28;20037;-80
2022/07/09 02:18:00;;;;;;;14.10;5.90;;;16.80;99.90;;;;;;5037430;28;20418;-81
2022/07/09 02:20:26;;;;;;;10.50;5.32;;;16.80;99.90;;;;;;5037199;28;20033;-80
2022/07/09 02:22:52;;;;;;;11.00;5.55;;;16.90;99.90;;;;;;5045309;28;20052;-80
2022/07/09 02:25:17;;;;;;;11.52;5.18;;;16.80;99.90;;;;;;5038651;28;20090;-81
2022/07/09 02:27:43;;;;;;;12.02;5.82;;;16.90;99.90;;;;;;5039055;28;20033;-80
2022/07/09 02:30:09;;;;;;;8.30;5.32;;;16.90;99.90;;;;;;5038897;28;20053;-80
2022/07/09 02:32:36;;;;;;;11.20;5.90;;;16.90;99.90;;;;;;5037755;28;20033;-80
2022/07/09 02:35:02;;;;;;;10.68;5.68;;;16.90;99.90;;;;;;5040494;28;20515;-80
2022/07/09 02:37:27;;;;;;;13.15;5.50;;;16.90;99.90;;;;;;5038840;28;20113;-81
2022/07/09 02:39:53;;;;;;;13.90;6.22;;;16.80;99.90;;;;;;5038450;28;20620;-80
2022/07/09 02:42:18;;;;;;;11.75;5.63;;;16.80;99.90;;;;;;5037467;28;20029;-80
2022/07/09 02:44:44;;;;;;;12.23;6.00;;;16.80;99.90;;;;;;5036547;28;20041;-80
2022/07/09 02:47:10;;;;;;;13.05;5.82;;;16.80;99.90;;;;;;5038332;28;20376;-80
2022/07/09 02:49:35;;;;;;;9.63;5.70;;;16.80;99.90;;;;;;5038664;28;20183;-79
2022/07/09 02:52:01;;;;;;;13.88;5.75;;;16.80;99.90;;;;;;5038960;28;20033;-80
2022/07/09 02:54:28;;;;;;;9.70;5.63;;;16.80;99.90;;;;;;5036067;28;20048;-80
2022/07/09 02:56:53;;;;;;;12.65;5.47;;;16.80;99.90;;;;;;5036896;28;22315;-80
2022/07/09 02:59:19;;;;;;;9.43;5.38;;;16.80;99.90;;;;;;5020913;28;20037;-80
2022/07/09 03:01:45;;;;;;;10.43;5.45;;;16.80;99.90;;;;;;5018765;28;20036;-80
2022/07/09 03:04:11;;;;;;;12.77;5.25;;;16.80;99.90;;;;;;5041368;28;20049;-80
2022/07/09 03:06:37;;;;;;;10.45;5.28;;;16.70;99.90;;;;;;5042864;28;20040;-80
2022/07/09 03:09:03;;;;;;;7.75;4.80;;;16.70;99.90;;;;;;5025129;28;20041;-80
2022/07/09 03:11:29;;;;;;;8.20;4.85;;;16.60;99.90;;;;;;5041840;28;20056;-80
2022/07/09 03:13:54;;;;;;;9.07;4.88;;;16.70;99.90;;;;;;5040590;28;20118;-79
2022/07/09 03:16:20;;;;;;;11.40;4.90;;;16.70;99.90;;;;;;5024663;28;20486;-79
2022/07/09 03:18:45;;;;;;;9.38;5.25;;;16.70;99.90;;;;;;5038330;28;20033;-80
2022/07/09 03:21:11;;;;;;;10.88;4.97;;;16.70;99.90;;;;;;5040730;28;20049;-80
2022/07/09 03:23:38;;;;;;;11.63;4.85;;;16.70;99.90;;;;;;5040900;28;20183;-80
2022/07/09 03:26:05;;;;;;;12.50;5.28;;;16.60;99.90;;;;;;5039671;28;20049;-80
2022/07/09 03:28:31;;;;;;;10.10;4.57;;;16.60;99.90;;;;;;5042021;28;20041;-80
2022/07/09 03:30:56;;;;;;;6.35;4.50;;;16.50;99.90;;;;;;5040604;28;20052;-80
2022/07/09 03:33:22;;;;;;;8.82;4.45;;;16.50;99.90;;;;;;5040948;28;20041;-80
2022/07/09 03:35:48;;;;;;;8.80;5.50;;;16.50;99.90;;;;;;5039319;28;20706;-79
2022/07/09 03:38:13;;;;;;;10.77;5.07;;;16.50;99.90;;;;;;5041466;28;20037;-80
2022/07/09 03:40:39;;;;;;;11.48;4.78;;;16.40;99.90;;;;;;5042404;28;20064;-79
2022/07/09 03:43:04;;;;;;;8.65;5.03;;;16.50;99.90;;;;;;5041862;28;20644;-80
2022/07/09 03:45:30;;;;;;;11.90;5.25;;;16.50;99.90;;;;;;5038812;28;20041;-80
2022/07/09 03:47:55;;;;;;;6.80;4.50;;;16.40;99.90;;;;;;5040280;28;20055;-80
2022/07/09 03:50:21;;;;;;;10.90;5.35;;;16.50;99.90;;;;;;5036958;28;20530;-80
2022/07/09 03:52:47;;;;;;;10.80;4.72;;;16.50;99.90;;;;;;5040569;28;20033;-80
2022/07/09 03:55:13;;;;;;;8.95;5.32;;;16.50;99.90;;;;;;5025151;28;20080;-80
2022/07/09 03:57:39;;;;;;;8.57;4.70;;;16.50;99.90;;;;;;5040983;28;20107;-80
2022/07/09 04:00:06;;;;;;;11.05;4.97;;;16.50;99.90;;;;;;5038875;28;20043;-80
2022/07/09 04:02:31;;;;;;;11.48;5.05;;;16.40;99.90;;;;;;5040546;28;20045;-80
2022/07/09 04:04:57;;;;;;;7.22;4.75;;;16.50;99.90;;;;;;5041255;28;20464;-80
2022/07/09 04:07:26;;;;;;;7.07;4.60;;;16.50;99.90;;;;;;5038011;28;20423;-80
2022/07/09 04:09:55;;;;;;;10.27;4.68;;;16.50;99.90;;;;;;5039458;28;20390;-80
2022/07/09 04:12:21;;;;;;;8.40;4.90;;;16.50;99.90;;;;;;5039973;28;20100;-79
2022/07/09 04:14:47;;;;;;;11.48;4.90;;;16.60;99.90;;;;;;5039426;28;20445;-80
2022/07/09 04:17:13;;;;;;;9.52;4.70;;;16.60;99.90;;;;;;5040459;28;20048;-79
2022/07/09 04:19:39;;;;;;;8.20;4.57;;;16.60;99.90;;;;;;5037434;28;20041;-80
2022/07/09 04:22:05;;;;;;;9.75;4.70;;;16.60;99.90;;;;;;5024157;28;20051;-80
2022/07/09 04:24:30;;;;;;;12.27;5.32;;;16.60;99.90;;;;;;5020325;28;20049;-80
2022/07/09 04:26:56;;;;;;;8.48;4.90;;;16.60;99.90;;;;;;5041594;28;20040;-80
2022/07/09 04:29:22;;;;;;;9.48;4.45;;;16.60;99.90;;;;;;5038608;28;20041;-79
2022/07/09 04:31:48;;;;;;;9.80;4.90;;;16.60;99.90;;;;;;5041112;28;20033;-80
2022/07/09 04:34:13;;;;;;;8.93;4.57;;;16.60;99.90;;;;;;5037859;28;20162;-79
2022/07/09 04:36:39;;;;;;;9.98;4.90;;;16.70;99.90;;;;;;5040198;28;20052;-80
2022/07/09 04:39:04;;;;;;;10.23;5.00;;;16.70;99.90;;;;;;5021802;28;20542;-80
2022/07/09 04:41:30;;;;;;;11.13;5.18;;;16.70;99.90;;;;;;5039459;28;20038;-79
2022/07/09 04:43:56;;;;;;;9.73;4.78;;;16.70;99.90;;;;;;5038774;28;20076;-80
2022/07/09 04:46:22;;;;;;;8.50;4.50;;;16.70;99.90;;;;;;5023602;28;20048;-80
2022/07/09 04:48:50;;;;;;;9.93;5.15;;;16.90;99.90;;;;;;5040355;28;20033;-79
2022/07/09 04:51:16;;;;;;;9.35;5.00;;;16.80;99.90;;;;;;5039427;28;20072;-80
2022/07/09 04:53:42;;;;;;;11.65;4.40;;;16.80;99.90;;;;;;5039748;28;20585;-80
2022/07/09 04:56:07;;;;;;;9.50;4.85;;;16.80;99.90;;;;;;5039612;28;20045;-80
2022/07/09 04:58:33;;;;;;;13.15;4.90;;;16.80;99.90;;;;;;5041001;28;20037;-80
2022/07/09 05:00:59;;;;;;;10.07;4.57;;;16.90;99.90;;;;;;5049370;28;20045;-80
2022/07/09 05:03:25;;;;;;;10.77;4.50;;;16.90;99.90;;;;;;5038970;28;20483;-81
2022/07/09 05:05:51;;;;;;;11.07;5.18;;;16.90;99.90;;;;;;5041715;28;20036;-80
2022/07/09 05:08:18;;;;;;;10.07;4.53;;;17.00;99.90;;;;;;5040231;28;20554;-81
2022/07/09 05:10:44;;;;;;;12.13;4.40;;;17.00;99.90;;;;;;5038557;28;20041;-80
2022/07/09 05:13:10;;;;;;;8.90;4.60;;;17.00;99.90;;;;;;5053797;28;20112;-80
2022/07/09 05:15:35;;;;;;;9.82;4.40;;;17.10;99.90;;;;;;5037197;28;20554;-80
2022/07/09 05:18:01;;;;;;;10.27;4.47;;;17.10;99.90;;;;;;5038858;28;20064;-80
2022/07/09 05:20:27;;;;;;;9.50;4.28;;;17.20;99.90;;;;;;5037809;28;20029;-80
2022/07/09 05:22:52;;;;;;;8.27;4.30;;;17.30;99.90;;;;;;5037442;28;20052;-80
2022/07/09 05:25:18;;;;;;;11.57;4.40;;;17.30;99.90;;;;;;5038006;28;20041;-80
2022/07/09 05:27:45;;;;;;;8.70;3.95;;;17.30;99.90;;;;;;5040700;28;20041;-80
2022/07/09 05:30:15;;;;;;;9.52;4.30;;;17.30;99.90;;;;;;5020851;28;20049;-80
2022/07/09 05:32:42;;;;;;;8.88;4.18;;;17.30;99.90;;;;;;5046889;28;20044;-79
2022/07/09 05:35:08;;;;;;;11.82;4.13;;;17.30;99.90;;;;;;5034873;28;20073;-80
2022/07/09 05:37:39;;;;;;;8.63;3.92;;;17.40;99.90;;;;;;5037282;28;20037;-80
2022/07/09 05:40:06;;;;;;;11.32;4.50;;;17.40;99.90;;;;;;5039631;28;20040;-81
2022/07/09 05:42:32;;;;;;;8.60;4.13;;;17.40;99.90;;;;;;5037210;28;20091;-80
2022/07/09 05:44:58;;;;;;;8.10;3.92;;;17.40;99.90;;;;;;5039621;28;20033;-81
2022/07/09 05:47:24;;;;;;;20.63;5.25;;;17.40;99.90;;;;;;5038124;28;20037;-80
2022/07/09 05:49:50;;;;;;;12.35;4.35;;;17.50;99.90;;;;;;5038995;28;20041;-81
2022/07/09 05:52:15;;;;;;;21.05;4.93;;;17.50;99.90;;;;;;5022194;28;20025;-80
2022/07/09 05:54:41;;;;;;;11.30;5.07;;;17.50;99.90;;;;;;5039558;28;20041;-80
2022/07/09 05:57:06;;;;;;;9.95;4.20;;;17.50;99.90;;;;;;5037333;28;20047;-80
2022/07/09 05:59:32;;;;;;;37.80;6.90;;;17.50;99.90;;;;;;5038377;28;20080;-81
2022/07/09 06:01:58;;;;;;;17.00;4.18;;;17.60;99.90;;;;;;5042079;28;20059;-81
2022/07/09 06:04:23;;;;;;;7.50;3.72;;;17.60;99.90;;;;;;5027681;28;20044;-81
2022/07/09 06:06:49;;;;;;;10.90;3.72;;;17.60;99.90;;;;;;5038075;28;20103;-79
2022/07/09 06:09:14;;;;;;;7.38;3.47;;;17.60;99.90;;;;;;5038543;28;20041;-81
2022/07/09 06:11:40;;;;;;;8.15;3.60;;;17.60;99.90;;;;;;5036935;28;20457;-81
2022/07/09 06:14:06;;;;;;;9.25;4.13;;;17.60;99.90;;;;;;5038514;28;20051;-80
2022/07/09 06:16:31;;;;;;;8.27;3.53;;;17.60;99.90;;;;;;5038021;28;20076;-80
2022/07/09 06:18:57;;;;;;;8.30;3.22;;;17.60;99.90;;;;;;5023034;28;20406;-81
2022/07/09 06:21:22;;;;;;;10.45;3.65;;;17.70;99.90;;;;;;5037922;28;20065;-80
2022/07/09 06:23:48;;;;;;;7.78;3.72;;;17.80;99.90;;;;;;5037911;28;20041;-80
2022/07/09 06:26:13;;;;;;;9.98;3.75;;;17.80;99.90;;;;;;5038812;28;20033;-81
2022/07/09 06:28:39;;;;;;;10.93;4.00;;;17.80;99.90;;;;;;5023289;28;20037;-81
2022/07/09 06:31:05;;;;;;;8.48;4.15;;;17.80;99.90;;;;;;5039409;28;20043;-79
2022/07/09 06:33:30;;;;;;;10.10;3.80;;;17.90;99.90;;;;;;5042002;28;20041;-80
2022/07/09 06:35:56;;;;;;;9.40;3.88;;;17.90;99.90;;;;;;5039000;28;20051;-81
2022/07/09 06:38:21;;;;;;;10.18;3.92;;;17.90;99.90;;;;;;5038952;28;20506;-79
2022/07/09 06:40:47;;;;;;;10.88;3.40;;;17.90;99.90;;;;;;5043438;28;20044;-81
2022/07/09 06:43:12;;;;;;;9.15;3.63;;;18.00;99.90;;;;;;5047218;28;20042;-80
2022/07/09 06:45:38;;;;;;;9.77;3.40;;;18.00;99.90;;;;;;5044833;28;20388;-80
2022/07/09 06:48:04;;;;;;;8.00;2.97;;;18.00;99.90;;;;;;5046307;28;20041;-79
2022/07/09 06:50:30;;;;;;;7.05;3.25;;;18.00;99.90;;;;;;5046277;28;20470;-80
2022/07/09 06:52:55;;;;;;;10.70;3.22;;;18.00;99.90;;;;;;5046517;28;20111;-80
2022/07/09 06:55:22;;;;;;;10.27;3.30;;;18.00;99.90;;;;;;5040402;28;20459;-79
2022/07/09 06:57:48;;;;;;;12.10;3.80;;;18.00;99.90;;;;;;5045286;28;20044;-81
2022/07/09 07:00:14;;;;;;;10.20;3.15;;;18.00;99.90;;;;;;5042567;28;20041;-80
2022/07/09 07:02:39;;;;;;;10.65;2.90;;;18.00;99.90;;;;;;5043339;28;20059;-81
2022/07/09 07:05:05;;;;;;;8.52;3.00;;;18.10;99.90;;;;;;5032229;28;20041;-79
2022/07/09 07:07:31;;;;;;;8.25;3.42;;;18.10;99.90;;;;;;5033782;28;20069;-80
2022/07/09 07:09:56;;;;;;;7.07;3.20;;;18.10;99.90;;;;;;5033783;28;20064;-81
2022/07/09 07:12:22;;;;;;;6.72;2.90;;;18.10;99.90;;;;;;5034020;28;20041;-80
2022/07/09 07:14:48;;;;;;;4.88;2.50;;;18.10;99.90;;;;;;5033014;28;20046;-80
2022/07/09 07:17:13;;;;;;;10.05;2.60;;;18.10;99.90;;;;;;5033449;28;20047;-81
2022/07/09 07:19:39;;;;;;;13.07;3.17;;;18.20;99.90;;;;;;5033987;28;20053;-80
2022/07/09 07:22:05;;;;;;;17.45;3.38;;;18.30;99.90;;;;;;5053645;28;20045;-81
2022/07/09 07:24:30;;;;;;;9.93;2.35;;;18.40;99.90;;;;;;5017932;28;20060;-81
2022/07/09 07:26:57;;;;;;;5.63;2.45;;;18.50;99.90;;;;;;5043831;28;20061;-81
2022/07/09 07:29:23;;;;;;;5.47;2.28;;;18.60;99.90;;;;;;5040736;28;20133;-80
2022/07/09 07:31:49;;;;;;;10.70;3.03;;;18.60;99.90;;;;;;5016689;28;20066;-81
2022/07/09 07:34:15;;;;;;;10.38;2.17;;;18.70;99.90;;;;;;5032680;28;20116;-80
2022/07/09 07:36:41;;;;;;;5.28;2.38;;;18.60;99.90;;;;;;5032043;28;20041;-81
2022/07/09 07:39:07;;;;;;;7.30;2.15;;;18.70;99.90;;;;;;5034297;28;20052;-81
2022/07/09 07:41:32;;;;;;;8.27;2.33;;;18.70;99.90;;;;;;5033550;28;20037;-81
2022/07/09 07:43:58;;;;;;;7.18;2.30;;;18.80;99.90;;;;;;5032782;28;20530;-80
2022/07/09 07:46:23;;;;;;;6.85;2.00;;;18.80;99.90;;;;;;5035869;28;20570;-81
2022/07/09 07:48:50;;;;;;;7.65;2.10;;;18.90;99.90;;;;;;5037366;28;20388;-82
2022/07/09 07:51:16;;;;;;;7.03;2.00;;;18.90;99.90;;;;;;5033312;28;20430;-81
2022/07/09 07:53:41;;;;;;;9.40;2.00;;;19.00;99.90;;;;;;5033225;28;20045;-81
2022/07/09 07:56:07;;;;;;;9.02;2.20;;;19.00;99.90;;;;;;5033882;28;20496;-81
2022/07/09 07:58:33;;;;;;;7.72;2.10;;;19.00;99.90;;;;;;5032796;28;20049;-80
2022/07/09 08:00:59;;;;;;;7.88;2.72;;;19.10;99.90;;;;;;5033531;28;20045;-81
2022/07/09 08:03:25;;;;;;;5.93;2.28;;;19.20;99.90;;;;;;5033285;28;20088;-81
2022/07/09 08:05:50;;;;;;;9.55;1.98;;;19.20;99.90;;;;;;5037933;28;20029;-82
2022/07/09 08:08:18;;;;;;;7.97;1.95;;;19.10;99.90;;;;;;5032667;28;20435;-81
2022/07/09 08:10:44;;;;;;;7.35;2.03;;;19.20;99.90;;;;;;5051590;28;20218;-79
2022/07/09 08:13:11;;;;;;;10.68;2.20;;;19.40;99.90;;;;;;5036935;28;20121;-81
2022/07/09 08:15:37;;;;;;;9.07;2.42;;;19.50;99.90;;;;;;5015468;28;20088;-80
2022/07/09 08:18:03;;;;;;;5.35;1.63;;;19.50;99.90;;;;;;5032890;28;20065;-81
2022/07/09 08:20:29;;;;;;;10.00;1.90;;;19.70;99.90;;;;;;5032681;28;20123;-81
2022/07/09 08:22:54;;;;;;;7.80;1.70;;;19.90;99.90;;;;;;5032278;28;20040;-82
2022/07/09 08:25:20;;;;;;;5.97;1.70;;;20.10;99.90;;;;;;5030651;28;20049;-81
2022/07/09 08:27:45;;;;;;;8.57;1.95;;;20.30;99.90;;;;;;5032639;28;20036;-81
2022/07/09 08:30:11;;;;;;;8.48;2.45;;;20.30;99.90;;;;;;5032407;28;20041;-79
2022/07/09 08:32:38;;;;;;;11.63;2.22;;;20.00;99.90;;;;;;5033194;28;20037;-82
2022/07/09 08:35:04;;;;;;;5.30;1.90;;;20.00;99.90;;;;;;5031463;28;20045;-82
2022/07/09 08:37:30;;;;;;;9.05;2.05;;;20.00;99.90;;;;;;5031751;28;20301;-84
2022/07/09 08:39:55;;;;;;;4.78;1.88;;;19.90;99.90;;;;;;5031401;28;20491;-83
2022/07/09 08:42:21;;;;;;;16.35;2.92;;;19.80;99.90;;;;;;5031321;28;20041;-84
2022/07/09 08:44:47;;;;;;;12.10;2.03;;;20.00;99.90;;;;;;5030539;28;20076;-85
2022/07/09 08:47:15;;;;;;;6.72;1.70;;;20.40;99.90;;;;;;5024179;28;20052;-84
2022/07/09 08:49:42;;;;;;;6.38;2.03;;;20.80;99.90;;;;;;5051096;28;20041;-85
2022/07/09 08:52:08;;;;;;;5.70;1.60;;;20.70;99.90;;;;;;5032845;28;20033;-84
2022/07/09 08:54:37;;;;;;;9.55;1.67;;;20.60;99.90;;;;;;5030222;28;20045;-85
2022/07/09 08:57:06;;;;;;;8.30;1.92;;;20.80;99.90;;;;;;5014849;28;20487;-85
2022/07/09 08:59:33;;;;;;;7.72;1.80;;;21.00;99.90;;;;;;5030992;28;20045;-85
2022/07/09 09:02:04;;;;;;;6.43;1.60;;;20.90;99.90;;;;;;5030542;28;20064;-86
2022/07/09 09:04:30;;;;;;;20.92;2.75;;;20.50;99.90;;;;;;5029587;28;20053;-87
2022/07/09 09:06:56;;;;;;;5.32;1.63;;;20.40;99.90;;;;;;5029901;28;20128;-87
2022/07/09 09:09:21;;;;;;;6.05;1.70;;;20.30;99.90;;;;;;5030931;28;20041;-82
2022/07/09 09:11:50;;;;;;;5.78;1.50;;;20.10;99.90;;;;;;5030211;28;20124;-84
2022/07/09 09:14:22;;;;;;;9.25;1.88;;;19.90;99.90;;;;;;5030021;28;20625;-84
2022/07/09 09:16:49;;;;;;;10.90;1.80;;;20.00;99.90;;;;;;5031127;28;20551;-85
2022/07/09 09:19:15;;;;;;;11.15;2.03;;;20.20;99.90;;;;;;5031195;28;20442;-85
2022/07/09 09:21:41;;;;;;;5.88;1.50;;;20.30;99.90;;;;;;5014086;28;20037;-86
2022/07/09 09:24:06;;;;;;;7.55;1.33;;;20.40;99.90;;;;;;5029976;28;20048;-84
2022/07/09 09:26:35;;;;;;;6.03;1.67;;;20.60;99.90;;;;;;5030990;28;20047;-85
2022/07/09 09:29:03;;;;;;;6.28;1.65;;;20.70;99.90;;;;;;5030718;28;20087;-84
2022/07/09 09:31:31;;;;;;;8.82;1.80;;;20.90;99.90;;;;;;5031050;28;20402;-84
2022/07/09 09:34:09;;;;;;;11.02;1.83;;;20.90;99.90;;;;;;5030132;28;20491;-86
2022/07/09 09:36:43;;;;;;;5.05;1.42;;;20.80;99.90;;;;;;5030314;28;20041;-85
2022/07/09 09:39:22;;;;;;;6.30;1.50;;;20.90;99.90;;;;;;5048750;28;20048;-85
2022/07/09 09:41:49;;;;;;;8.23;1.92;;;20.60;99.90;;;;;;5037554;28;20038;-85
2022/07/09 09:44:21;;;;;;;5.35;1.58;;;20.50;99.90;;;;;;5029552;28;20056;-84
2022/07/09 09:46:47;;;;;;;8.20;2.13;;;20.70;99.90;;;;;;5028867;28;20069;-85
2022/07/09 09:49:15;;;;;;;9.20;2.13;;;20.80;99.90;;;;;;5030176;28;20029;-85
2022/07/09 09:51:51;;;;;;;8.30;1.73;;;20.90;99.90;;;;;;5030349;28;20388;-84
2022/07/09 09:54:19;;;;;;;7.15;1.50;;;21.10;99.90;;;;;;5030375;28;20404;-82
2022/07/09 09:56:45;;;;;;;7.40;1.70;;;21.00;99.90;;;;;;5014012;28;20046;-85
2022/07/09 09:59:12;;;;;;;4.70;1.38;;;21.20;99.90;;;;;;5030501;28;20050;-85
2022/07/09 10:01:39;;;;;;;5.68;1.42;;;21.30;99.90;;;;;;5013753;28;20038;-87
2022/07/09 10:04:05;;;;;;;7.60;1.98;;;20.90;99.90;;;;;;5029460;28;20038;-85
2022/07/09 10:06:32;;;;;;;7.80;1.80;;;21.10;99.90;;;;;;5030149;28;20052;-83
2022/07/09 10:08:57;;;;;;;5.07;1.60;;;21.30;99.90;;;;;;5030109;28;20041;-83
2022/07/09 10:11:23;;;;;;;5.53;1.63;;;21.60;99.90;;;;;;5030110;28;20061;-81
2022/07/09 10:13:56;;;;;;;5.55;1.75;;;21.50;99.90;;;;;;5033482;28;20046;-81
2022/07/09 10:16:39;;;;;;;6.57;1.70;;;21.30;99.90;;;;;;5034777;28;20091;-84
2022/07/09 10:19:05;;;;;;;8.25;2.17;;;21.30;99.90;;;;;;5033988;28;20041;-86
2022/07/09 10:21:42;;;;;;;5.95;2.10;;;21.40;99.90;;;;;;5053044;28;20036;-85
2022/07/09 10:24:09;;;;;;;8.25;2.03;;;21.60;99.90;;;;;;5046020;28;20569;-85
2022/07/09 10:26:46;;;;;;;9.63;1.63;;;21.40;99.90;;;;;;5017866;28;20594;-86
2022/07/09 10:29:26;;;;;;;6.22;1.50;;;20.90;99.90;;;;;;5033840;28;20065;-85
2022/07/09 10:31:53;;;;;;;8.70;1.70;;;20.60;99.90;;;;;;5040201;28;20033;-85
2022/07/09 10:34:30;;;;;;;5.47;1.80;;;20.10;99.90;;;;;;5046729;28;20138;-85
2022/07/09 10:37:02;;;;;;;8.82;2.20;;;20.10;99.90;;;;;;5047630;28;20045;-85
2022/07/09 10:39:28;;;;;;;10.90;2.20;;;20.20;99.90;;;;;;5035498;28;20045;-85
2022/07/09 10:42:00;;;;;;;9.27;2.00;;;20.40;99.90;;;;;;5017354;28;20099;-87
2022/07/09 10:44:35;;;;;;;9.43;2.00;;;20.60;99.90;;;;;;5032991;28;20073;-84
2022/07/09 10:47:02;;;;;;;13.10;2.25;;;20.70;99.90;;;;;;5033412;28;20037;-87
2022/07/09 10:49:28;;;;;;;6.38;1.77;;;20.60;99.90;;;;;;5033771;28;20074;-85
2022/07/09 10:51:58;;;;;;;8.93;2.10;;;20.50;99.90;;;;;;5016713;28;20034;-85
2022/07/09 10:54:24;;;;;;;11.20;1.90;;;20.60;99.90;;;;;;5033279;28;20381;-86
2022/07/09 10:56:50;;;;;;;8.40;1.83;;;20.40;99.90;;;;;;5033247;28;20181;-86
2022/07/09 10:59:18;;;;;;;9.52;1.70;;;20.70;99.90;;;;;;5033757;28;20037;-86
2022/07/09 11:01:43;;;;;;;7.88;1.77;;;20.60;99.90;;;;;;5016652;28;20522;-85
2022/07/09 11:04:11;;;;;;;7.05;1.80;;;20.90;99.90;;;;;;5016807;28;20037;-85
2022/07/09 11:06:47;;;;;;;10.00;1.67;;;21.00;99.90;;;;;;5049459;28;20522;-87
2022/07/09 11:09:13;;;;;;;9.95;1.63;;;21.20;99.90;;;;;;5032699;28;20041;-86
2022/07/09 11:11:42;;;;;;;5.65;1.35;;;21.40;99.90;;;;;;5049966;28;20052;-85
2022/07/09 11:14:09;;;;;;;5.60;1.13;;;21.20;99.90;;;;;;5042513;28;20072;-85
2022/07/09 11:16:35;;;;;;;6.63;1.30;;;20.80;99.90;;;;;;5032462;28;20124;-86
2022/07/09 11:19:21;;;;;;;5.75;1.15;;;20.80;99.90;;;;;;5032883;28;20105;-86
2022/07/09 11:21:48;;;;;;;5.75;1.27;;;20.80;99.90;;;;;;5045113;28;20037;-84
2022/07/09 11:24:15;;;;;;;3.50;0.90;;;20.80;99.90;;;;;;5032513;28;20038;-85
2022/07/09 11:26:41;;;;;;;9.15;1.10;;;20.70;99.90;;;;;;5032574;28;20041;-84
2022/07/09 11:29:08;;;;;;;6.95;1.20;;;21.10;99.90;;;;;;5035737;28;20398;-85
2022/07/09 11:31:35;;;;;;;8.32;1.30;;;21.40;99.90;;;;;;5043666;28;20045;-83
2022/07/09 11:34:12;;;;;;;6.18;1.30;;;21.40;99.90;;;;;;5031870;28;20494;-84
2022/07/09 11:36:40;;;;;;;8.40;1.42;;;21.50;99.90;;;;;;5032839;28;20092;-84
2022/07/09 11:39:05;;;;;;;6.40;1.30;;;21.20;99.90;;;;;;5031774;28;20042;-85
2022/07/09 11:41:44;;;;;;;4.90;1.10;;;21.40;99.90;;;;;;5032621;28;20052;-85
2022/07/09 11:44:13;;;;;;;8.38;1.00;;;21.40;99.90;;;;;;5046106;28;20509;-84
2022/07/09 11:46:39;;;;;;;6.35;1.08;;;21.60;99.90;;;;;;5015602;28;20037;-85
2022/07/09 11:49:14;;;;;;;4.72;1.30;;;22.10;99.90;;;;;;5032814;28;20037;-83
2022/07/09 11:51:41;;;;;;;6.05;1.35;;;22.10;99.90;;;;;;5034589;28;20120;-83
2022/07/09 11:54:06;;;;;;;3.40;1.13;;;21.90;99.90;;;;;;5051619;28;20049;-81
2022/07/09 11:56:47;;;;;;;7.50;1.08;;;22.00;99.90;;;;;;5045908;28;20044;-81
2022/07/09 11:59:13;;;;;;;7.53;1.30;;;22.00;99.90;;;;;;5045170;28;20042;-82
2022/07/09 12:01:39;;;;;;;5.82;1.40;;;21.90;99.90;;;;;;5023558;28;20038;-81
2022/07/09 12:04:05;;;;;;;4.55;1.10;;;22.10;99.90;;;;;;5015389;28;20099;-82
2022/07/09 12:06:31;;;;;;;5.88;1.13;;;22.40;99.90;;;;;;5044630;28;20041;-81
2022/07/09 12:09:07;;;;;;;5.28;1.20;;;22.50;99.90;;;;;;5055191;28;20453;-82
2022/07/09 12:11:32;;;;;;;5.30;1.10;;;22.30;99.90;;;;;;5033910;28;20065;-81
2022/07/09 12:13:58;;;;;;;5.45;1.02;;;22.40;99.90;;;;;;5054398;28;20064;-80
2022/07/09 12:16:24;;;;;;;4.53;1.20;;;22.20;99.90;;;;;;5057477;28;20036;-80
2022/07/09 12:18:49;;;;;;;6.53;1.20;;;22.50;99.90;;;;;;5032590;28;20783;-82
2022/07/09 12:21:15;;;;;;;5.60;1.10;;;22.40;99.90;;;;;;5048419;28;20056;-80
2022/07/09 12:23:41;;;;;;;7.10;1.20;;;22.80;99.90;;;;;;5052706;28;20044;-80
2022/07/09 12:26:07;;;;;;;4.03;1.10;;;23.00;99.90;;;;;;5042533;28;20037;-82
2022/07/09 12:28:32;;;;;;;7.80;1.65;;;23.00;99.60;;;;;;5032344;28;20041;-82
2022/07/09 12:30:58;;;;;;;6.18;1.02;;;22.80;99.90;;;;;;5032762;28;20072;-82
2022/07/09 12:33:23;;;;;;;7.00;1.10;;;23.00;99.90;;;;;;5032076;28;20033;-82
2022/07/09 12:35:49;;;;;;;6.47;1.08;;;23.10;99.80;;;;;;5029383;28;20068;-82
2022/07/09 12:38:14;;;;;;;5.13;1.00;;;23.00;99.90;;;;;;5031477;28;20037;-79
2022/07/09 12:40:40;;;;;;;5.30;0.82;;;23.10;99.90;;;;;;5060255;28;20047;-80